createdAt,value
2017-04-18T00:01:29.045Z,9.33
2017-04-18T00:03:52.277Z,9.22
2017-04-18T00:06:15.438Z,9.37
2017-04-18T00:08:38.601Z,9.59
2017-04-18T00:11:01.861Z,9.27
2017-04-18T00:13:16.726Z,9.52
2017-04-18T00:15:39.885Z,9.3
2017-04-18T00:17:54.752Z,9.22
2017-04-18T00:20:18.017Z,9.42
2017-04-18T00:22:41.276Z,9.3
2017-04-18T00:25:04.437Z,9.51
2017-04-18T00:27:19.187Z,9.74
2017-04-18T00:29:33.959Z,9.76
2017-04-18T00:31:57.123Z,9.99
2017-04-18T00:34:20.283Z,10.15
2017-04-18T00:36:21.371Z,10.24
2017-04-18T00:38:31.415Z,10.12
2017-04-18T00:40:41.476Z,10.02
2017-04-18T00:42:48.006Z,9.97
2017-04-18T00:45:02.869Z,9.97
2017-04-18T00:47:26.143Z,9.81
2017-04-18T00:49:49.392Z,9.7
2017-04-18T00:52:12.551Z,9.69
2017-04-18T00:54:27.416Z,9.51
2017-04-18T00:56:37.085Z,9.08
2017-04-18T00:58:46.653Z,9.22
2017-04-18T01:01:09.871Z,9.12
2017-04-18T01:03:33.124Z,9.19
2017-04-18T01:05:56.286Z,9.19
2017-04-18T01:08:19.443Z,9.08
2017-04-18T01:10:34.209Z,9.21
2017-04-18T01:12:57.368Z,9.27
2017-04-18T01:14:50.079Z,9.36
2017-04-18T01:17:13.275Z,9.16
2017-04-18T01:19:14.355Z,9.13
2017-04-18T01:21:29.178Z,8.99
2017-04-18T01:23:52.446Z,9.08
2017-04-18T01:26:15.607Z,8.92
2017-04-18T01:28:17.191Z,8.9
2017-04-18T01:30:40.420Z,9.08
2017-04-18T01:33:03.681Z,8.81
2017-04-18T01:35:18.550Z,8.78
2017-04-18T01:37:11.251Z,8.53
2017-04-18T01:39:26.054Z,8.36
2017-04-18T01:41:49.217Z,8.38
2017-04-18T01:44:12.376Z,8.06
2017-04-18T01:46:35.538Z,8.03
2017-04-18T01:48:45.203Z,8.24
2017-04-18T01:51:08.355Z,7.95
2017-04-18T01:53:31.499Z,7.72
2017-04-18T01:55:56.606Z,7.9
2017-04-18T01:58:12.392Z,7.95
2017-04-18T02:00:35.451Z,7.87
2017-04-18T02:02:58.610Z,8.09
2017-04-18T02:05:00.186Z,7.95
2017-04-18T02:07:02.638Z,8.36
2017-04-18T02:09:25.799Z,8.44
2017-04-18T02:11:35.471Z,8.35
2017-04-18T02:13:58.605Z,8.28
2017-04-18T02:16:21.763Z,8.01
2017-04-18T02:18:14.476Z,8.11
2017-04-18T02:20:37.672Z,8.23
2017-04-18T02:22:39.212Z,8.18
2017-04-18T02:24:53.986Z,7.83
2017-04-18T02:26:55.067Z,7.8
2017-04-18T02:29:18.289Z,7.67
2017-04-18T02:31:28.307Z,7.77
2017-04-18T02:33:51.499Z,7.91
2017-04-18T02:36:14.661Z,7.8
2017-04-18T02:38:24.719Z,7.53
2017-04-18T02:40:47.911Z,7.62
2017-04-18T02:43:11.034Z,7.78
2017-04-18T02:45:34.092Z,7.98
2017-04-18T02:47:57.162Z,7.96
2017-04-18T02:50:20.317Z,8.2
2017-04-18T02:52:43.472Z,8.05
2017-04-18T02:55:06.527Z,8.24
2017-04-18T02:57:12.892Z,8.17
2017-04-18T02:59:35.949Z,8.06
2017-04-18T03:01:50.611Z,8.2
2017-04-18T03:04:13.670Z,8.2
2017-04-18T03:06:36.739Z,8.27
2017-04-18T03:08:59.783Z,8.46
2017-04-18T03:11:01.336Z,8.39
2017-04-18T03:13:24.495Z,8.39
2017-04-18T03:15:47.549Z,8.23
2017-04-18T03:18:10.714Z,8.39
2017-04-18T03:20:33.874Z,8.24
2017-04-18T03:22:57.036Z,8.08
2017-04-18T03:25:20.197Z,8.23
2017-04-18T03:27:43.357Z,8.23
2017-04-18T03:29:58.119Z,8.27
2017-04-18T03:32:12.882Z,8.35
2017-04-18T03:34:36.042Z,8.35
2017-04-18T03:36:59.203Z,8.31
2017-04-18T03:39:13.967Z,8.31
2017-04-18T03:41:15.550Z,8.32
2017-04-18T03:43:30.281Z,8.32
2017-04-18T03:45:53.441Z,8.08
2017-04-18T03:48:16.511Z,8.08
2017-04-18T03:50:18.193Z,8.17
2017-04-18T03:52:41.317Z,8.02
2017-04-18T03:55:04.473Z,8.14
2017-04-18T03:57:19.239Z,7.95
2017-04-18T03:59:42.396Z,7.93
2017-04-18T04:02:05.582Z,8.17
2017-04-18T04:04:28.716Z,8.18
2017-04-18T04:06:43.541Z,8.32
2017-04-18T04:09:06.645Z,8.34
2017-04-18T04:11:13.010Z,8.32
2017-04-18T04:13:14.593Z,8.26
2017-04-18T04:15:37.721Z,8.14
2017-04-18T04:18:00.880Z,8.17
2017-04-18T04:20:15.646Z,8.16
2017-04-18T04:22:53.550Z,8.28
2017-04-18T04:25:16.709Z,8.18
2017-04-18T04:27:31.476Z,8.35
2017-04-18T04:29:54.634Z,8.16
2017-04-18T04:32:09.400Z,8.31
2017-04-18T04:34:32.558Z,8.39
2017-04-18T04:36:34.225Z,8.5
2017-04-18T04:38:35.778Z,8.36
2017-04-18T04:40:37.346Z,8.21
2017-04-18T04:42:39.015Z,8.09
2017-04-18T04:45:02.161Z,8.32
2017-04-18T04:47:25.244Z,8.41
2017-04-18T04:49:48.355Z,8.45
2017-04-18T04:52:11.581Z,8.44
2017-04-18T04:54:34.681Z,8.41
2017-04-18T04:56:57.989Z,8.39
2017-04-18T04:59:21.007Z,8.31
2017-04-18T05:01:35.753Z,8.39
2017-04-18T05:03:58.989Z,8.32
2017-04-18T05:06:22.085Z,8.64
2017-04-18T05:08:45.261Z,8.78
2017-04-18T05:11:08.397Z,8.86
2017-04-18T05:13:31.570Z,8.77
2017-04-18T05:15:54.726Z,8.86
2017-04-18T05:18:17.879Z,8.93
2017-04-18T05:20:41.046Z,9.15
2017-04-18T05:23:05.249Z,8.92
2017-04-18T05:25:28.418Z,8.61
2017-04-18T05:27:43.387Z,8.63
2017-04-18T05:30:06.513Z,8.84
2017-04-18T05:32:29.675Z,8.69
2017-04-18T05:34:52.850Z,8.9
2017-04-18T05:37:16.058Z,8.95
2017-04-18T05:39:40.179Z,8.66
2017-04-18T05:42:04.420Z,8.53
2017-04-18T05:44:14.403Z,8.42
2017-04-18T05:46:38.186Z,8.61
2017-04-18T05:48:52.944Z,8.9
2017-04-18T05:51:03.015Z,8.9
2017-04-18T05:53:26.156Z,8.71
2017-04-18T05:55:49.260Z,8.74
2017-04-18T05:58:12.480Z,8.89
2017-04-18T06:00:35.589Z,9.13
2017-04-18T06:02:41.928Z,9.05
2017-04-18T06:05:05.015Z,8.9
2017-04-18T06:07:28.109Z,8.99
2017-04-18T06:09:51.204Z,8.68
2017-04-18T06:12:05.928Z,8.41
2017-04-18T06:14:15.482Z,8.31
2017-04-18T06:16:16.548Z,8.69
2017-04-18T06:18:26.595Z,8.66
2017-04-18T06:20:50.893Z,8.78
2017-04-18T06:23:14.073Z,9
2017-04-18T06:25:37.150Z,9.22
2017-04-18T06:28:00.309Z,9.37
2017-04-18T06:30:23.608Z,9.51
2017-04-18T06:32:46.737Z,8.93
2017-04-18T06:34:47.693Z,9.12
2017-04-18T06:37:02.469Z,8.71
2017-04-18T06:39:25.612Z,9.22
2017-04-18T06:41:48.759Z,9.33
2017-04-18T06:43:49.856Z,9.56
2017-04-18T06:46:13.033Z,9.3
2017-04-18T06:48:27.818Z,9.47
2017-04-18T06:50:37.417Z,9.63
2017-04-18T06:53:00.607Z,10.05
2017-04-18T06:55:15.380Z,10.12
2017-04-18T06:57:30.142Z,9.91
2017-04-18T06:59:53.266Z,9.8
2017-04-18T07:02:16.355Z,9.51
2017-04-18T07:04:31.125Z,9.33
2017-04-18T07:06:45.904Z,9.45
2017-04-18T07:09:09.074Z,9.66
2017-04-18T07:11:23.767Z,9.88
2017-04-18T07:13:46.924Z,9.81
2017-04-18T07:15:48.012Z,9.84
2017-04-18T07:18:11.199Z,9.99
2017-04-18T07:20:25.975Z,10.06
2017-04-18T07:22:49.146Z,10.12
2017-04-18T07:25:12.318Z,10.02
2017-04-18T07:27:35.497Z,9.59
2017-04-18T07:29:50.227Z,9.21
2017-04-18T07:32:13.479Z,9.33
2017-04-18T07:34:28.264Z,9.18
2017-04-18T07:36:51.422Z,9.22
2017-04-18T07:38:57.753Z,9.52
2017-04-18T07:41:20.918Z,9.22
2017-04-18T07:43:36.693Z,9.05
2017-04-18T07:45:59.846Z,8.97
2017-04-18T07:47:35.577Z,9.22
2017-04-18T07:49:58.750Z,9.22
2017-04-18T07:51:51.433Z,9.16
2017-04-18T07:54:06.227Z,8.86
2017-04-18T07:55:58.959Z,8.99
2017-04-18T07:58:22.127Z,8.72
2017-04-18T08:00:45.299Z,9.08
2017-04-18T08:03:08.472Z,9.3
2017-04-18T08:05:31.617Z,9.42
2017-04-18T08:07:41.212Z,9.15
2017-04-18T08:09:55.995Z,9.21
2017-04-18T08:12:10.772Z,9.26
2017-04-18T08:14:20.376Z,9.67
2017-04-18T08:16:43.588Z,9.21
2017-04-18T08:19:06.763Z,9.67
2017-04-18T08:21:29.926Z,9.87
2017-04-18T08:23:53.099Z,9.97
2017-04-18T08:26:16.276Z,9.66
2017-04-18T08:28:39.478Z,10.07
2017-04-18T08:30:49.561Z,10.23
2017-04-18T08:33:04.422Z,10.75
2017-04-18T08:35:05.515Z,10.51
2017-04-18T08:37:28.779Z,10.68
2017-04-18T08:39:52.038Z,11.16
2017-04-18T08:41:53.173Z,10.98
2017-04-18T08:44:02.682Z,11.2
2017-04-18T08:46:17.611Z,11.2
2017-04-18T08:48:41.909Z,11.18
2017-04-18T08:51:05.224Z,11.26
2017-04-18T08:53:28.571Z,11.08
2017-04-18T08:55:38.197Z,11.3
2017-04-18T08:57:53.155Z,11.35
2017-04-18T09:00:16.488Z,11.67
2017-04-18T09:02:09.355Z,11.59
2017-04-18T09:04:32.687Z,11.65
2017-04-18T09:06:47.632Z,11.31
2017-04-18T09:08:57.277Z,11.34
2017-04-18T09:11:20.641Z,11.05
2017-04-18T09:13:43.972Z,10.68
2017-04-18T09:16:07.287Z,11.05
2017-04-18T09:18:08.445Z,11.53
2017-04-18T09:20:23.406Z,11.43
2017-04-18T09:22:46.748Z,11.73
2017-04-18T09:24:47.891Z,11.4
2017-04-18T09:27:02.880Z,11.88
2017-04-18T09:29:26.239Z,12.23
2017-04-18T09:31:49.589Z,11.77
2017-04-18T09:34:12.979Z,11.83
2017-04-18T09:36:22.639Z,12.08
2017-04-18T09:38:46.056Z,12.26
2017-04-18T09:41:01.041Z,12.12
2017-04-18T09:43:02.194Z,12.76
2017-04-18T09:45:25.614Z,12.94
2017-04-18T09:47:49.040Z,14
2017-04-18T09:49:50.712Z,13.65
2017-04-18T09:52:14.257Z,15.98
2017-04-18T09:54:37.771Z,17.13
2017-04-18T09:56:52.926Z,18.03
2017-04-18T09:59:16.533Z,18.31
2017-04-18T10:01:40.206Z,18.48
2017-04-18T10:04:03.919Z,18.45
2017-04-18T10:06:27.664Z,17.94
2017-04-18T10:08:51.427Z,16.74
2017-04-18T10:11:06.757Z,16.16
2017-04-18T10:13:30.514Z,15.23
2017-04-18T10:15:23.353Z,14.93
2017-04-18T10:17:47.048Z,14.26
2017-04-18T10:19:48.235Z,13.39
2017-04-18T10:22:03.462Z,12.95
2017-04-18T10:24:18.626Z,13.67
2017-04-18T10:26:42.158Z,13.2
2017-04-18T10:28:51.851Z,13.57
2017-04-18T10:31:06.972Z,13.8
2017-04-18T10:33:30.478Z,14.56
2017-04-18T10:35:53.959Z,15.26
2017-04-18T10:38:17.471Z,15.63
2017-04-18T10:40:40.998Z,15.98
2017-04-18T10:43:04.510Z,15.55
2017-04-18T10:45:28.087Z,15.87
2017-04-18T10:47:51.639Z,16.24
2017-04-18T10:50:15.234Z,16.02
2017-04-18T10:52:21.978Z,16.86
2017-04-18T10:54:45.633Z,16.51
2017-04-18T10:56:55.389Z,16.28
2017-04-18T10:59:19.120Z,16.37
2017-04-18T11:01:42.836Z,16.79
2017-04-18T11:04:06.518Z,15.99
2017-04-18T11:06:07.891Z,16.47
2017-04-18T11:08:31.618Z,16.12
2017-04-18T11:10:55.327Z,16.05
2017-04-18T11:13:05.079Z,16.5
2017-04-18T11:15:28.828Z,16.54
2017-04-18T11:17:52.572Z,16.51
2017-04-18T11:20:07.876Z,17.39
2017-04-18T11:22:31.610Z,17.1
2017-04-18T11:24:55.326Z,16.5
2017-04-18T11:27:19.036Z,16.17
2017-04-18T11:29:42.709Z,15.6
2017-04-18T11:32:06.414Z,14.41
2017-04-18T11:33:59.744Z,14.33
2017-04-18T11:36:09.465Z,13.97
2017-04-18T11:38:33.136Z,13.45
2017-04-18T11:40:56.738Z,13.79
2017-04-18T11:43:20.290Z,14.61
2017-04-18T11:45:43.791Z,14.68
2017-04-18T11:48:07.355Z,14.99
2017-04-18T11:50:23.514Z,15.73
2017-04-18T11:52:47.117Z,14.66
2017-04-18T11:55:10.724Z,13.58
2017-04-18T11:57:34.319Z,13.52
2017-04-18T11:59:35.532Z,13.54
2017-04-18T12:01:59.125Z,13.37
2017-04-18T12:04:00.789Z,13.24
2017-04-18T12:06:24.356Z,14.04
2017-04-18T12:08:47.868Z,14.67
2017-04-18T12:10:54.542Z,14.68
2017-04-18T12:13:09.665Z,14.28
2017-04-18T12:15:24.774Z,14.58
2017-04-18T12:17:34.490Z,14.92
2017-04-18T12:19:58.064Z,15.23
2017-04-18T12:22:21.596Z,15.11
2017-04-18T12:24:22.823Z,15.17
2017-04-18T12:26:46.415Z,14
2017-04-18T12:28:47.588Z,13.37
2017-04-18T12:31:02.763Z,12.51
2017-04-18T12:33:26.305Z,12.63
2017-04-18T12:35:49.782Z,12.29
2017-04-18T12:38:04.855Z,12.9
2017-04-18T12:40:19.931Z,13.57
2017-04-18T12:42:12.688Z,13.98
2017-04-18T12:44:36.205Z,14.51
2017-04-18T12:46:59.688Z,14.66
2017-04-18T12:49:14.774Z,14.82
2017-04-18T12:51:38.288Z,14.85
2017-04-18T12:54:01.815Z,14.93
2017-04-18T12:56:25.337Z,15.25
2017-04-18T12:58:48.883Z,15.05
2017-04-18T13:01:12.454Z,15.22
2017-04-18T13:03:27.645Z,15.66
2017-04-18T13:05:51.202Z,15.83
2017-04-18T13:08:14.893Z,16.13
2017-04-18T13:10:38.431Z,16.25
2017-04-18T13:13:02.004Z,14.82
2017-04-18T13:15:17.168Z,14.44
2017-04-18T13:17:41.740Z,14.33
2017-04-18T13:19:56.915Z,14.51
2017-04-18T13:21:49.770Z,14.68
2017-04-18T13:24:13.374Z,13.98
2017-04-18T13:26:28.530Z,14.22
2017-04-18T13:28:52.069Z,14.61
2017-04-18T13:31:15.625Z,14.44
2017-04-18T13:33:39.213Z,14.61
2017-04-18T13:36:02.727Z,14.26
2017-04-18T13:38:17.828Z,14.05
2017-04-18T13:40:41.372Z,14.01
2017-04-18T13:43:04.915Z,14.44
2017-04-18T13:45:28.457Z,14.9
2017-04-18T13:47:52.027Z,14.99
2017-04-18T13:49:53.219Z,14.56
2017-04-18T13:52:08.434Z,15
2017-04-18T13:54:32.023Z,14.63
2017-04-18T13:56:55.610Z,14.92
2017-04-18T13:58:56.804Z,14.82
2017-04-18T14:00:58.091Z,15.05
2017-04-18T14:03:21.740Z,15.5
2017-04-18T14:05:45.359Z,15.52
2017-04-18T14:08:08.988Z,14.94
2017-04-18T14:10:32.622Z,14.23
2017-04-18T14:12:56.252Z,12.83
2017-04-18T14:15:19.880Z,13.08
2017-04-18T14:17:43.477Z,12.81
2017-04-18T14:19:44.700Z,13.43
2017-04-18T14:21:46.492Z,13.17
2017-04-18T14:24:10.095Z,13.65
2017-04-18T14:26:33.653Z,12.53
2017-04-18T14:28:57.168Z,12.21
2017-04-18T14:31:20.670Z,12.57
2017-04-18T14:33:44.192Z,12.81
2017-04-18T14:36:07.687Z,12.39
2017-04-18T14:38:31.220Z,12.78
2017-04-18T14:40:54.660Z,12.87
2017-04-18T14:43:18.156Z,12.29
2017-04-18T14:45:34.202Z,12.95
2017-04-18T14:47:49.305Z,13.28
2017-04-18T14:50:12.896Z,13.46
2017-04-18T14:52:36.322Z,13.11
2017-04-18T14:54:59.808Z,13.09
2017-04-18T14:57:00.985Z,13.26
2017-04-18T14:59:16.062Z,13.89
2017-04-18T15:01:39.580Z,13.36
2017-04-18T15:04:03.090Z,13.5
2017-04-18T15:06:04.890Z,13.05
2017-04-18T15:08:19.993Z,13.02
2017-04-18T15:10:43.505Z,13.31
2017-04-18T15:13:06.927Z,13.12
2017-04-18T15:15:30.309Z,12.57
2017-04-18T15:17:53.792Z,13.09
2017-04-18T15:20:17.302Z,13.16
2017-04-18T15:22:40.649Z,12.81
2017-04-18T15:25:04.094Z,12.47
2017-04-18T15:27:19.141Z,12.54
2017-04-18T15:29:42.573Z,12.99
2017-04-18T15:32:07.011Z,13.02
2017-04-18T15:34:30.475Z,12.63
2017-04-18T15:36:53.944Z,12.61
2017-04-18T15:39:17.347Z,12.55
2017-04-18T15:41:40.792Z,12.81
2017-04-18T15:44:04.221Z,12.55
2017-04-18T15:46:27.632Z,12.26
2017-04-18T15:48:51.026Z,12.72
2017-04-18T15:51:14.432Z,12.94
2017-04-18T15:53:37.844Z,12.58
2017-04-18T15:56:02.276Z,13.03
2017-04-18T15:58:26.337Z,12.93
2017-04-18T16:00:49.769Z,12.43
2017-04-18T16:03:13.207Z,11.93
2017-04-18T16:05:05.985Z,11.8
2017-04-18T16:07:29.438Z,12.29
2017-04-18T16:09:52.852Z,11.58
2017-04-18T16:12:02.515Z,11.65
2017-04-18T16:14:25.961Z,11.49
2017-04-18T16:16:49.357Z,11.81
2017-04-18T16:18:55.976Z,11.91
2017-04-18T16:20:57.146Z,11.85
2017-04-18T16:23:20.575Z,12.18
2017-04-18T16:25:43.985Z,12.44
2017-04-18T16:28:07.340Z,12.53
2017-04-18T16:30:22.357Z,12.37
2017-04-18T16:32:45.780Z,12.57
2017-04-18T16:35:09.179Z,12.54
2017-04-18T16:37:32.514Z,12.94
2017-04-18T16:39:55.954Z,12.63
2017-04-18T16:42:19.393Z,12.69
2017-04-18T16:44:42.843Z,11.8
2017-04-18T16:47:06.269Z,11.97
2017-04-18T16:49:16.420Z,11.97
2017-04-18T16:51:39.829Z,11.78
2017-04-18T16:53:54.824Z,12.02
2017-04-18T16:56:18.218Z,11.49
2017-04-18T16:58:41.591Z,11.35
2017-04-18T17:01:04.955Z,11.73
2017-04-18T17:03:28.328Z,11.91
2017-04-18T17:05:51.702Z,11.33
2017-04-18T17:08:07.690Z,11.59
2017-04-18T17:10:08.815Z,11.53
2017-04-18T17:12:32.186Z,11.86
2017-04-18T17:14:55.531Z,11.78
2017-04-18T17:17:18.894Z,11.65
2017-04-18T17:19:33.858Z,11.63
2017-04-18T17:21:48.740Z,11.77
2017-04-18T17:24:12.151Z,11.55
2017-04-18T17:26:35.486Z,11.68
2017-04-18T17:28:50.428Z,11.8
2017-04-18T17:30:43.185Z,11.67
2017-04-18T17:32:58.138Z,11.33
2017-04-18T17:35:21.481Z,11.37
2017-04-18T17:37:44.746Z,11.59
2017-04-18T17:40:07.959Z,11.65
2017-04-18T17:42:31.290Z,11.88
2017-04-18T17:44:54.603Z,11.55
2017-04-18T17:47:09.594Z,11.59
2017-04-18T17:49:16.051Z,11.53
2017-04-18T17:51:39.465Z,11.67
2017-04-18T17:56:41.476Z,11.7
2017-04-18T17:59:25.580Z,11.31
2017-04-18T18:01:48.886Z,11.04
2017-04-18T18:04:12.204Z,10.72
2017-04-18T18:06:35.494Z,10.05
2017-04-18T18:08:58.869Z,9.82
2017-04-18T18:11:22.157Z,10.03
2017-04-18T18:14:33.049Z,10.1
2017-04-18T18:18:26.922Z,9.39
2017-04-18T18:20:29.795Z,9.51
2017-04-18T18:22:54.220Z,9.94
2017-04-18T18:29:27.352Z,10.02
2017-04-18T18:33:44.745Z,10.15
2017-04-18T18:35:59.122Z,10.31
2017-04-18T18:37:46.086Z,10.3
2017-04-18T18:40:21.495Z,10.06
2017-04-18T18:51:09.743Z,10.31
2017-04-18T19:01:15.006Z,9.7
2017-04-18T19:05:14.758Z,9.64
2017-04-18T19:09:21.799Z,8.95
2017-04-18T19:13:21.731Z,8.75
2017-04-18T19:14:58.250Z,8.78
2017-04-18T19:18:05.259Z,9.16
2017-04-18T19:21:57.983Z,9.31
2017-04-18T19:24:40.132Z,9.31
2017-04-18T19:27:03.494Z,9.26
2017-04-18T19:29:26.991Z,9.31
2017-04-18T19:31:50.306Z,9.09
2017-04-18T19:34:13.478Z,9.19
2017-04-18T19:36:14.718Z,9.16
2017-04-18T19:38:36.907Z,8.89
2017-04-18T19:43:33.519Z,9.02
2017-04-18T19:47:08.166Z,8.89
